Time;durP1;ratioP1;P1;durP2;ratioP2;P2;SDS_P1;SDS_P2;PMS_P1;PMS_P2;Temp;Humidity;BMP_temperature;BMP_pressure;BME280_temperature;BME280_humidity;BME280_pressure;Samples;Min_cycle;Max_cycle;Signal;HPM_P1;HPM_P2
2021/10/10 00:06:27;;;;;;;;;;;;;;;;;;;;;
2021/10/10 00:10:38;;;;;;;58.92;36.80;;;11.70;99.90;;;;;;4664102;30;20069;-87
2021/10/10 00:13:59;;;;;;;;;;;;;;;;;;;;;
2021/10/10 00:22:44;;;;;;;;;;;;;;;;;;;;;
2021/10/10 00:51:48;;;;;;;;;;;;;;;;;;;;;
2021/10/10 01:08:49;;;;;;;66.43;42.13;;;10.00;99.90;;;;;;4827450;27;7093657;-95
2021/10/10 01:19:55;;;;;;;68.82;38.85;;;10.90;99.90;;;;;;4999012;28;20046;-88
2021/10/10 01:24:02;;;;;;;;;;;;;;;;;;;;;
2021/10/10 01:37:04;;;;;;;;;;;;;;;;;;;;;
2021/10/10 02:12:47;;;;;;;;;;;;;;;;;;;;;
2021/10/10 02:21:32;;;;;;;68.10;42.75;;;10.50;99.90;;;;;;4922429;29;20180;-86
2021/10/10 02:30:51;;;;;;;59.63;38.15;;;10.30;99.90;;;;;;4760297;29;20056;-86
2021/10/10 02:35:01;;;;;;;70.35;40.38;;;11.40;99.90;;;;;;4778558;29;20066;-86
2021/10/10 02:43:29;;;;;;;;;;;;;;;;;;;;;
2021/10/10 03:14:52;;;;;;;67.63;40.60;;;9.90;99.90;;;;;;4782121;29;20063;-84
2021/10/10 03:22:58;;;;;;;61.53;37.75;;;9.70;99.90;;;;;;4795381;29;20036;-86
2021/10/10 03:35:40;;;;;;;;;;;;;;;;;;;;;
2021/10/10 03:39:29;;;;;;;;;;;;;;;;;;;;;
2021/10/10 03:43:47;;;;;;;69.65;41.35;;;10.50;99.90;;;;;;4764363;30;20052;-86
2021/10/10 04:00:38;;;;;;;72.63;41.83;;;9.70;99.90;;;;;;4784358;29;20059;-85
2021/10/10 04:05:16;;;;;;;68.90;43.10;;;9.70;99.90;;;;;;4824871;29;20058;-86
2021/10/10 04:09:16;;;;;;;;;;;;;;;;;;;;;
2021/10/10 04:16:58;;;;;;;65.45;41.78;;;9.20;99.90;;;;;;4913567;29;20071;-86
2021/10/10 04:21:08;;;;;;;;;;;;;;;;;;;;;
2021/10/10 04:25:22;;;;;;;70.35;42.78;;;9.30;99.90;;;;;;4894944;29;20047;-86
2021/10/10 04:33:11;;;;;;;;;;;;;;;;;;;;;
2021/10/10 04:36:45;;;;;;;69.22;42.45;;;9.60;99.90;;;;;;4886673;29;20049;-84
2021/10/10 04:43:54;;;;;;;66.82;44.22;;;9.50;99.90;;;;;;4846061;29;20033;-83
2021/10/10 04:47:09;;;;;;;72.45;45.45;;;9.70;99.90;;;;;;4863543;29;20550;-85
2021/10/10 04:50:36;;;;;;;81.15;46.53;;;9.40;99.90;;;;;;4871150;29;20045;-84
2021/10/10 04:54:01;;;;;;;78.03;43.70;;;9.80;99.90;;;;;;4912001;29;20052;-83
2021/10/10 04:58:09;;;;;;;;;;;;;;;;;;;;;
2021/10/10 05:10:31;;;;;;;;;;;;;;;;;;;;;
2021/10/10 05:27:10;;;;;;;77.95;40.40;;;9.50;99.90;;;;;;4805503;29;20063;-84
2021/10/10 05:58:38;;;;;;;;;;;;;;;;;;;;;
2021/10/10 06:02:40;;;;;;;;;;;;;;;;;;;;;
2021/10/10 06:10:19;;;;;;;;;;;;;;;;;;;;;
2021/10/10 06:14:08;;;;;;;79.28;45.28;;;10.20;99.90;;;;;;4801121;29;20057;-85
2021/10/10 06:31:38;;;;;;;74.43;46.38;;;10.20;99.90;;;;;;4779754;29;20134;-89
2021/10/10 06:47:08;;;;;;;72.88;42.60;;;12.00;99.90;;;;;;4898738;29;20048;-86
2021/10/10 06:51:28;;;;;;;;;;;;;;;;;;;;;
2021/10/10 06:55:19;;;;;;;78.45;44.08;;;10.80;99.90;;;;;;4787881;30;20070;-83
2021/10/10 06:58:57;;;;;;;69.85;44.17;;;11.50;99.90;;;;;;4776108;29;20059;-85
2021/10/10 07:01:26;;;;;;;72.03;43.85;;;11.50;99.90;;;;;;4843497;29;20060;-82
2021/10/10 07:09:24;;;;;;;68.45;42.13;;;11.50;99.90;;;;;;4839541;29;20050;-88
2021/10/10 07:12:45;;;;;;;;;;;;;;;;;;;;;
2021/10/10 07:15:53;;;;;;;67.25;41.55;;;11.60;99.90;;;;;;4838975;29;20053;-86
2021/10/10 07:19:45;;;;;;;67.28;42.28;;;11.60;99.90;;;;;;4879002;29;20055;-90
2021/10/10 07:28:48;;;;;;;;;;;;;;;;;;;;;
2021/10/10 07:32:37;;;;;;;67.32;39.20;;;11.70;99.90;;;;;;4765964;30;20051;-89
2021/10/10 07:35:45;;;;;;;69.82;41.58;;;11.80;99.90;;;;;;4774243;30;20490;-85
2021/10/10 07:46:33;;;;;;;73.35;41.67;;;12.00;99.90;;;;;;4824623;29;20063;-85
2021/10/10 07:49:25;;;;;;;75.82;42.53;;;11.80;99.90;;;;;;4793880;29;20055;-91
2021/10/10 07:52:30;;;;;;;65.13;39.35;;;12.00;99.90;;;;;;4814735;29;20438;-83
2021/10/10 07:55:53;;;;;;;66.75;38.75;;;12.00;99.90;;;;;;4812688;29;20066;-83
2021/10/10 07:58:46;;;;;;;73.40;42.65;;;12.10;99.90;;;;;;4829299;29;20060;-84
2021/10/10 08:01:22;;;;;;;67.18;40.33;;;12.10;99.90;;;;;;4851593;29;20294;-83
2021/10/10 08:03:53;;;;;;;72.35;39.15;;;12.20;99.90;;;;;;4907889;29;20040;-85
2021/10/10 08:06:21;;;;;;;71.45;41.60;;;12.30;99.90;;;;;;4907916;29;20059;-84
2021/10/10 08:09:02;;;;;;;68.60;39.13;;;13.80;99.90;;;;;;4890856;29;20059;-86
2021/10/10 08:12:03;;;;;;;72.90;40.03;;;12.30;99.90;;;;;;4909618;29;20071;-82
2021/10/10 08:14:54;;;;;;;67.60;38.08;;;12.40;99.90;;;;;;4911725;29;20054;-82
2021/10/10 08:17:32;;;;;;;64.57;38.80;;;12.50;99.90;;;;;;4888703;29;20072;-84
2021/10/10 08:20:11;;;;;;;67.43;38.22;;;12.60;99.90;;;;;;4903718;29;20063;-83
2021/10/10 08:22:41;;;;;;;71.25;39.10;;;12.60;99.90;;;;;;4926042;29;20048;-84
2021/10/10 08:25:20;;;;;;;61.72;37.22;;;12.60;99.90;;;;;;4920809;29;20056;-85
2021/10/10 08:28:46;;;;;;;62.05;36.65;;;12.70;99.90;;;;;;4892777;29;20518;-84
2021/10/10 08:32:22;;;;;;;65.63;36.55;;;12.80;99.90;;;;;;4910477;29;20058;-85
2021/10/10 08:35:34;;;;;;;56.67;35.80;;;12.90;99.90;;;;;;4897652;29;20056;-86
2021/10/10 08:38:58;;;;;;;;;;;;;;;;;;;;;
2021/10/10 08:43:12;;;;;;;59.50;34.47;;;13.00;99.90;;;;;;4844501;29;20057;-88
2021/10/10 08:52:19;;;;;;;62.60;33.13;;;13.60;99.90;;;;;;4782704;29;20054;-86
2021/10/10 08:55:25;;;;;;;55.97;33.88;;;13.00;99.90;;;;;;4783430;29;20098;-86
2021/10/10 08:58:43;;;;;;;58.97;34.17;;;13.50;99.90;;;;;;4793253;29;20058;-85
2021/10/10 09:01:47;;;;;;;64.45;34.40;;;13.60;99.90;;;;;;4810365;29;20070;-83
2021/10/10 09:04:51;;;;;;;59.00;34.42;;;14.90;99.90;;;;;;4820721;29;20066;-82
2021/10/10 09:07:32;;;;;;;60.70;36.55;;;13.80;99.90;;;;;;4816081;29;20066;-83
2021/10/10 09:14:01;;;;;;;70.82;36.60;;;13.60;99.90;;;;;;4928632;29;20052;-81
2021/10/10 09:16:35;;;;;;;59.78;33.83;;;13.50;99.90;;;;;;4910849;29;20058;-84
2021/10/10 09:19:27;;;;;;;59.73;34.23;;;14.20;99.90;;;;;;4928248;29;20059;-83
2021/10/10 09:22:00;;;;;;;59.20;34.00;;;14.30;99.90;;;;;;4910893;29;20058;-80
2021/10/10 09:24:31;;;;;;;53.40;32.78;;;14.40;99.90;;;;;;4895425;29;20052;-86
2021/10/10 09:27:28;;;;;;;61.15;36.03;;;14.40;99.90;;;;;;4878492;29;20060;-82
2021/10/10 09:30:02;;;;;;;60.08;34.10;;;13.60;99.90;;;;;;4933721;29;20048;-87
2021/10/10 09:32:32;;;;;;;53.53;32.10;;;14.60;99.90;;;;;;4914207;29;20050;-82
2021/10/10 09:39:51;;;;;;;50.28;31.40;;;15.70;99.90;;;;;;4878330;23;20061;-90
2021/10/10 09:47:55;;;;;;;49.58;27.80;;;15.00;99.90;;;;;;4904541;29;20059;-94
2021/10/10 09:51:01;;;;;;;55.03;32.13;;;15.10;99.90;;;;;;4927688;29;20054;-92
2021/10/10 09:53:37;;;;;;;48.70;27.70;;;15.10;99.90;;;;;;4912746;29;20047;-93
2021/10/10 09:56:36;;;;;;;49.60;28.02;;;15.10;99.90;;;;;;4925162;29;20052;-94
2021/10/10 09:59:46;;;;;;;49.40;30.48;;;15.20;99.90;;;;;;4926674;29;20062;-89
2021/10/10 10:02:15;;;;;;;48.30;29.73;;;15.20;99.90;;;;;;4888313;29;20060;-93
2021/10/10 10:04:52;;;;;;;53.33;31.45;;;15.20;99.90;;;;;;4898667;29;20056;-93
2021/10/10 10:07:36;;;;;;;49.33;28.30;;;15.30;99.90;;;;;;4908909;23;20063;-94
2021/10/10 10:10:31;;;;;;;50.05;27.55;;;15.40;99.90;;;;;;4970496;28;20056;-90
2021/10/10 10:13:15;;;;;;;49.33;31.25;;;15.50;99.90;;;;;;4949248;29;20047;-91
2021/10/10 10:15:57;;;;;;;48.80;29.63;;;15.50;99.90;;;;;;4953258;23;20097;-84
2021/10/10 10:19:30;;;;;;;52.08;31.08;;;15.60;99.90;;;;;;4905987;29;20055;-85
2021/10/10 10:22:00;;;;;;;50.03;29.92;;;14.70;99.90;;;;;;4914929;29;20397;-87
2021/10/10 10:25:32;;;;;;;51.67;32.55;;;15.60;99.90;;;;;;4835953;29;20053;-82
2021/10/10 10:28:22;;;;;;;47.17;27.27;;;15.70;99.90;;;;;;4858121;29;20061;-84
2021/10/10 10:30:55;;;;;;;53.33;29.98;;;15.70;99.90;;;;;;4853147;29;20058;-82
2021/10/10 10:34:17;;;;;;;53.63;30.08;;;15.80;99.90;;;;;;4838927;29;20088;-87
2021/10/10 10:41:50;;;;;;;51.20;31.05;;;15.70;99.90;;;;;;4826780;29;20051;-81
2021/10/10 10:44:37;;;;;;;;;;;15.80;99.90;;;;;;4912830;29;20048;-83
2021/10/10 10:47:36;;;;;;;55.35;31.92;;;15.90;99.90;;;;;;4932402;29;19933;-85
2021/10/10 10:50:08;;;;;;;52.10;30.95;;;15.40;99.90;;;;;;4897405;29;20477;-84
2021/10/10 10:53:02;;;;;;;52.35;31.70;;;15.80;99.90;;;;;;4928198;29;20040;-88
2021/10/10 10:55:57;;;;;;;49.10;27.88;;;15.80;99.90;;;;;;4910395;29;20060;-81
2021/10/10 11:03:50;;;;;;;;;;;;;;;;;;;;;
2021/10/10 11:10:53;;;;;;;;;;;;;;;;;;;;;
2021/10/10 11:14:30;;;;;;;;;;;;;;;;;;;;;
2021/10/10 11:18:06;;;;;;;45.13;25.85;;;15.50;99.90;;;;;;4842890;29;20046;-83
2021/10/10 11:21:13;;;;;;;40.28;24.60;;;16.00;99.90;;;;;;4861111;29;20095;-86
2021/10/10 11:24:21;;;;;;;43.13;24.38;;;16.10;99.90;;;;;;4825723;29;20054;-81
2021/10/10 11:26:52;;;;;;;47.58;25.65;;;16.20;99.90;;;;;;4816633;29;20056;-81
2021/10/10 11:29:22;;;;;;;36.47;21.70;;;16.20;99.90;;;;;;4823269;29;20051;-83
2021/10/10 11:32:27;;;;;;;21.77;10.25;;;16.20;99.90;;;;;;4822311;29;20058;-88
2021/10/10 11:36:12;;;;;;;13.82;7.15;;;16.20;99.90;;;;;;4809030;29;20054;-82
2021/10/10 11:39:33;;;;;;;10.65;5.38;;;16.10;99.90;;;;;;4779269;30;20059;-89
2021/10/10 11:43:04;;;;;;;13.55;5.57;;;15.90;99.90;;;;;;4776410;30;20048;-83
2021/10/10 11:45:33;;;;;;;10.43;6.85;;;16.00;99.90;;;;;;4818169;29;20051;-85
2021/10/10 11:49:06;;;;;;;12.73;6.30;;;15.90;99.90;;;;;;4823814;29;20050;-85
2021/10/10 11:51:49;;;;;;;12.27;5.47;;;17.10;99.90;;;;;;4863475;29;20560;-89
2021/10/10 11:58:42;;;;;;;11.60;6.80;;;16.80;99.90;;;;;;4921343;29;20056;-87
2021/10/10 12:01:48;;;;;;;;;;;16.00;99.90;;;;;;4926418;29;20063;-89
2021/10/10 12:05:10;;;;;;;17.30;9.32;;;16.10;99.90;;;;;;4912124;29;19926;-89
2021/10/10 12:07:58;;;;;;;15.68;7.68;;;16.50;99.90;;;;;;4935315;29;20052;-84
2021/10/10 12:10:39;;;;;;;;;;;16.40;99.90;;;;;;4934394;29;20067;-88
2021/10/10 12:35:40;;;;;;;15.82;8.65;;;18.40;99.90;;;;;;4769717;30;20066;-85
2021/10/10 12:43:09;;;;;;;16.48;8.73;;;17.50;99.90;;;;;;4722813;30;20065;-87
2021/10/10 13:04:40;;;;;;;15.90;8.80;;;18.10;99.90;;;;;;4702529;29;20042;-88
2021/10/10 13:17:47;;;;;;;;;;;;;;;;;;;;;
2021/10/10 13:20:45;;;;;;;19.95;8.05;;;19.30;99.90;;;;;;4721321;30;20107;-88
2021/10/10 13:24:45;;;;;;;11.60;5.35;;;17.70;99.90;;;;;;4714995;30;20063;-84
2021/10/10 13:33:35;;;;;;;;;;;;;;;;;;;;;
2021/10/10 13:37:06;;;;;;;9.73;5.35;;;18.50;99.90;;;;;;4700629;30;20064;-81
2021/10/10 13:39:59;;;;;;;12.80;7.72;;;18.50;99.90;;;;;;4729013;30;20048;-82
2021/10/10 13:52:38;;;;;;;7.13;4.28;;;18.70;99.90;;;;;;4729057;30;20053;-87
2021/10/10 13:55:23;;;;;;;;;;;;;;;;;;;;;
2021/10/10 13:59:13;;;;;;;4.72;3.50;;;18.70;99.90;;;;;;4709716;30;20050;-86
2021/10/10 14:02:26;;;;;;;5.38;3.53;;;18.80;99.90;;;;;;4766563;30;20068;-86
2021/10/10 14:15:10;;;;;;;;;;;;;;;;;;;;;
2021/10/10 14:18:29;;;;;;;4.90;3.10;;;18.80;99.90;;;;;;4802840;29;20079;-85
2021/10/10 14:21:56;;;;;;;5.90;2.88;;;18.70;99.90;;;;;;4801538;29;20073;-89
2021/10/10 14:25:57;;;;;;;4.68;2.58;;;18.70;99.90;;;;;;4780636;30;20122;-92
2021/10/10 14:29:52;;;;;;;5.28;3.22;;;18.40;99.90;;;;;;4757560;30;20056;-89
2021/10/10 14:46:07;;;;;;;4.13;2.45;;;18.50;99.90;;;;;;4747522;30;20053;-87
2021/10/10 14:50:26;;;;;;;;;;;;;;;;;;;;;
2021/10/10 14:53:50;;;;;;;;;;;;;;;;;;;;;
2021/10/10 15:01:48;;;;;;;5.30;2.47;;;19.90;99.90;;;;;;4878434;29;20056;-89
2021/10/10 15:12:14;;;;;;;4.88;2.90;;;19.30;99.90;;;;;;3189508;26;20094;-83
2021/10/10 15:14:43;;;;;;;5.15;2.40;;;19.40;99.90;;;;;;4944850;29;20054;-83
2021/10/10 15:17:20;;;;;;;4.50;2.45;;;19.20;99.90;;;;;;4951907;29;20044;-85
2021/10/10 15:25:07;;;;;;;;;;;;;;;;;;;;;
2021/10/10 15:28:35;;;;;;;2.65;1.85;;;19.10;99.90;;;;;;4813922;29;20051;-85
2021/10/10 15:53:21;;;;;;;6.30;2.50;;;19.70;99.90;;;;;;4674245;30;20067;-93
2021/10/10 15:56:56;;;;;;;;;;;;;;;;;;;;;
2021/10/10 16:05:39;;;;;;;;;;;;;;;;;;;;;
2021/10/10 16:46:17;;;;;;;4.22;2.17;;;18.50;99.90;;;;;;5147266;27;20395;-93
2021/10/10 16:48:49;;;;;;;5.18;2.50;;;17.20;99.90;;;;;;5082657;28;20066;-93
2021/10/10 16:51:23;;;;;;;10.00;2.30;;;17.20;99.90;;;;;;5087446;28;20532;-92
2021/10/10 16:54:16;;;;;;;4.78;2.13;;;17.20;99.90;;;;;;5083470;28;20052;-94
2021/10/10 16:56:54;;;;;;;5.65;1.90;;;17.10;99.90;;;;;;5098755;28;20035;-91
2021/10/10 16:59:29;;;;;;;5.55;1.95;;;17.00;99.90;;;;;;5077798;28;20047;-94
2021/10/10 17:02:15;;;;;;;6.47;3.05;;;16.90;99.90;;;;;;5082391;28;20399;-92
2021/10/10 17:05:02;;;;;;;7.95;2.60;;;16.90;99.90;;;;;;5093766;28;20214;-92
2021/10/10 17:07:58;;;;;;;5.97;2.30;;;16.80;99.90;;;;;;5097856;28;20035;-94
2021/10/10 17:11:02;;;;;;;4.97;2.13;;;17.00;99.90;;;;;;5099337;28;20036;-93
2021/10/10 17:14:17;;;;;;;5.38;2.10;;;16.60;99.90;;;;;;5086151;28;20048;-93
2021/10/10 17:17:01;;;;;;;7.50;2.92;;;16.50;99.90;;;;;;5080718;28;20083;-94
2021/10/10 17:19:51;;;;;;;6.80;2.05;;;16.40;99.90;;;;;;5095112;28;20051;-92
2021/10/10 17:22:44;;;;;;;6.13;1.95;;;16.30;99.90;;;;;;5109599;28;20055;-94
2021/10/10 17:25:30;;;;;;;4.35;1.90;;;16.20;99.90;;;;;;5090382;28;20060;-92
2021/10/10 17:28:07;;;;;;;3.97;1.90;;;16.00;99.90;;;;;;5080656;28;20060;-94
2021/10/10 17:31:28;;;;;;;7.07;2.85;;;16.00;99.90;;;;;;5112980;28;20044;-93
2021/10/10 17:34:13;;;;;;;6.40;2.50;;;15.90;99.90;;;;;;5109834;28;20036;-94
2021/10/10 18:38:00;;;;;;;;;;;;;;;;;;;;;
2021/10/10 19:20:20;;;;;;;13.85;6.63;;;14.40;99.90;;;;;;5592055;22;15226731;-92
2021/10/10 19:23:48;;;;;;;18.00;5.88;;;14.60;99.90;;;;;;6251923;22;20030;-93
2021/10/10 19:26:58;;;;;;;13.32;4.75;;;14.40;99.90;;;;;;6197793;23;20021;-94
2021/10/10 19:30:14;;;;;;;17.98;5.55;;;14.40;99.90;;;;;;6183041;23;20016;-91
2021/10/10 19:33:45;;;;;;;9.40;5.18;;;14.30;99.90;;;;;;6190128;23;20017;-93
2021/10/10 19:47:29;;;;;;;13.07;4.55;;;14.60;99.90;;;;;;6244277;22;20020;-94
2021/10/10 19:50:50;;;;;;;11.93;4.03;;;15.60;99.90;;;;;;6163156;23;20022;-93
2021/10/10 19:59:53;;;;;;;15.90;4.45;;;14.60;99.90;;;;;;6234739;22;20020;-92
2021/10/10 20:23:42;;;;;;;8.68;3.00;;;14.40;99.90;;;;;;6252363;22;20024;-94
2021/10/10 20:27:24;;;;;;;12.18;3.85;;;14.00;99.90;;;;;;6220690;23;20143;-88
2021/10/10 20:29:58;;;;;;;14.13;3.92;;;14.30;99.90;;;;;;6241050;23;20016;-92
2021/10/10 20:32:30;;;;;;;13.38;3.83;;;14.30;99.90;;;;;;6242210;23;20016;-91
2021/10/10 20:35:32;;;;;;;6.82;2.90;;;15.10;99.90;;;;;;6264895;23;20008;-88
2021/10/10 20:44:51;;;;;;;6.65;3.13;;;14.10;99.90;;;;;;6238600;23;20024;-95
2021/10/10 20:48:53;;;;;;;9.77;3.42;;;14.00;99.90;;;;;;6218902;23;20028;-90
2021/10/10 20:53:08;;;;;;;6.10;2.78;;;14.00;99.90;;;;;;6238969;23;20061;-94
2021/10/10 21:09:26;;;;;;;12.68;4.18;;;13.90;99.90;;;;;;6259299;23;20024;-95
2021/10/10 21:12:02;;;;;;;16.95;4.35;;;13.80;99.90;;;;;;6212370;23;20027;-94
2021/10/10 21:14:39;;;;;;;12.60;3.63;;;13.40;99.90;;;;;;6238656;23;20593;-93
2021/10/10 21:17:37;;;;;;;13.75;3.55;;;13.70;99.90;;;;;;6207095;23;20020;-93
2021/10/10 21:20:08;;;;;;;12.02;5.10;;;13.60;99.90;;;;;;6219182;22;20132;-91
2021/10/10 21:22:44;;;;;;;12.15;3.47;;;13.60;99.90;;;;;;6243688;23;20095;-93
2021/10/10 21:35:21;;;;;;;12.27;3.05;;;13.40;99.90;;;;;;6242005;22;20024;-93
2021/10/10 21:38:37;;;;;;;7.18;2.75;;;13.30;99.90;;;;;;6188825;23;20016;-94
2021/10/10 21:41:25;;;;;;;11.47;4.73;;;13.50;99.90;;;;;;6208420;23;20023;-92
2021/10/10 21:44:36;;;;;;;10.88;3.40;;;13.10;99.90;;;;;;6171114;23;20016;-95
2021/10/10 21:47:50;;;;;;;9.20;2.95;;;13.00;99.90;;;;;;6190590;23;20068;-95
2021/10/10 21:51:08;;;;;;;7.85;3.10;;;13.00;99.90;;;;;;6192545;22;20064;-95
2021/10/10 21:54:07;;;;;;;9.48;3.05;;;13.00;99.90;;;;;;6189155;23;20004;-93
2021/10/10 21:56:56;;;;;;;6.03;3.00;;;12.80;99.90;;;;;;6168978;23;20009;-92
2021/10/10 22:04:47;;;;;;;19.17;4.03;;;12.80;99.90;;;;;;6210046;23;20023;-94
2021/10/10 22:07:35;;;;;;;9.30;2.75;;;12.70;99.90;;;;;;6186044;23;20021;-94
2021/10/10 22:10:25;;;;;;;8.40;2.85;;;12.60;99.90;;;;;;6162133;23;20001;-90
2021/10/10 22:12:55;;;;;;;12.02;3.88;;;12.60;99.90;;;;;;6183565;23;20016;-90
2021/10/10 22:15:55;;;;;;;7.53;3.13;;;12.50;99.90;;;;;;6205866;23;20019;-92
2021/10/10 22:24:34;;;;;;;12.13;3.25;;;12.40;99.90;;;;;;6214277;23;20017;-92
2021/10/10 22:27:46;;;;;;;15.73;3.95;;;11.90;99.90;;;;;;6198888;23;20016;-92
2021/10/10 22:30:25;;;;;;;14.10;3.40;;;12.30;99.90;;;;;;6186247;23;20020;-92
2021/10/10 22:33:40;;;;;;;15.90;4.22;;;12.20;99.90;;;;;;6172362;23;20013;-94
2021/10/10 22:50:50;;;;;;;15.85;5.20;;;12.10;99.90;;;;;;6150902;23;20022;-87
2021/10/10 22:53:19;;;;;;;9.70;3.42;;;12.00;99.90;;;;;;6205492;23;20016;-87
2021/10/10 22:56:02;;;;;;;14.23;3.65;;;12.00;99.90;;;;;;6179504;23;20025;-91
2021/10/10 22:58:36;;;;;;;12.55;3.60;;;12.00;99.90;;;;;;6153922;23;20019;-88
2021/10/10 23:01:06;;;;;;;14.90;3.17;;;11.80;99.90;;;;;;6154789;23;20127;-88
2021/10/10 23:03:47;;;;;;;10.25;3.70;;;11.80;99.90;;;;;;6158635;23;20031;-86
2021/10/10 23:06:24;;;;;;;6.30;3.93;;;11.80;99.90;;;;;;6177416;23;20021;-88
2021/10/10 23:08:58;;;;;;;11.35;3.90;;;11.80;99.90;;;;;;6175973;23;20251;-88
2021/10/10 23:11:49;;;;;;;17.60;3.58;;;12.20;99.90;;;;;;6175901;23;20017;-88
2021/10/10 23:14:42;;;;;;;12.37;3.73;;;11.70;99.90;;;;;;6152635;23;20014;-88
2021/10/10 23:17:21;;;;;;;10.65;3.63;;;11.50;99.90;;;;;;6131444;23;20035;-87
2021/10/10 23:19:53;;;;;;;9.45;3.25;;;11.60;99.90;;;;;;6156165;23;20017;-87
2021/10/10 23:22:39;;;;;;;14.50;3.85;;;11.50;99.90;;;;;;6179553;23;20023;-89
2021/10/10 23:25:12;;;;;;;7.25;3.05;;;11.30;99.90;;;;;;6153192;23;20027;-87
2021/10/10 23:28:01;;;;;;;12.77;3.55;;;11.50;99.90;;;;;;6152242;23;20021;-85
2021/10/10 23:30:35;;;;;;;6.82;3.15;;;12.60;99.90;;;;;;6104638;23;20441;-87
2021/10/10 23:33:43;;;;;;;14.48;3.58;;;12.30;99.90;;;;;;6150568;23;20021;-88
2021/10/10 23:36:31;;;;;;;13.27;4.82;;;11.40;99.90;;;;;;6160992;23;20023;-88
2021/10/10 23:39:26;;;;;;;10.43;3.13;;;11.30;99.90;;;;;;6180625;23;20021;-89
2021/10/10 23:42:15;;;;;;;8.88;3.40;;;11.30;99.90;;;;;;6136488;23;20023;-87
2021/10/10 23:44:52;;;;;;;12.63;3.97;;;11.20;99.90;;;;;;6134974;23;20020;-85
2021/10/10 23:47:31;;;;;;;6.40;2.65;;;11.00;99.90;;;;;;6176034;23;20020;-89
2021/10/10 23:50:22;;;;;;;13.45;3.45;;;11.00;99.90;;;;;;6229122;23;20031;-88
2021/10/10 23:52:59;;;;;;;11.73;3.90;;;11.00;99.90;;;;;;6180234;23;20027;-87
2021/10/10 23:55:44;;;;;;;11.07;3.83;;;11.10;99.90;;;;;;6181475;23;20024;-87
2021/10/10 23:58:18;;;;;;;13.75;3.70;;;10.80;99.90;;;;;;6158030;23;20017;-89
